SAT106 LPAZ-LPPD
Flight info
| Callsign | SAT106 |
|---|---|
| Flight time | N/A |
| Altitude | 12000 |
| Route | XUVAP |
| Aircraft | DH8D/M-SDE2E3FGRY/H |
Departure
| Time | 2026-05-09 08:53 |
|---|---|
| Airport | Santa Maria Airport (LPAZ) |
Arrival
| Time | N/A |
|---|---|
| Airport | João Paulo II Airport (LPPD) |
| Time | Latitude | Longitude | Altitude | Speed | Heading |
|---|---|---|---|---|---|
| 2026-05-09 08:38 | 36.97297 | -25.16636 | 345 ft | 0 kts | 351° |
| 2026-05-09 08:49 | 36.97307 | -25.16638 | 345 ft | 6 kts | 350° |
| 2026-05-09 08:49 | 36.97343 | -25.16678 | 343 ft | 10 kts | 271° |
| 2026-05-09 08:50 | 36.97336 | -25.16799 | 335 ft | 17 kts | 279° |
| 2026-05-09 08:50 | 36.97360 | -25.16960 | 328 ft | 18 kts | 281° |
| 2026-05-09 08:50 | 36.97336 | -25.17089 | 323 ft | 16 kts | 192° |
| 2026-05-09 08:50 | 36.97199 | -25.17071 | 321 ft | 28 kts | 171° |
| 2026-05-09 08:51 | 36.96940 | -25.17020 | 316 ft | 45 kts | 170° |
| 2026-05-09 08:51 | 36.96590 | -25.16951 | 310 ft | 53 kts | 171° |
| 2026-05-09 08:51 | 36.96251 | -25.16885 | 302 ft | 45 kts | 171° |
| 2026-05-09 08:51 | 36.95999 | -25.16835 | 294 ft | 28 kts | 163° |
| 2026-05-09 08:52 | 36.95892 | -25.16787 | 293 ft | 12 kts | 253° |
| 2026-05-09 08:52 | 36.95965 | -25.16828 | 294 ft | 25 kts | 351° |
| 2026-05-09 08:52 | 36.96437 | -25.16921 | 309 ft | 105 kts | 351° |
| 2026-05-09 08:52 | 36.97314 | -25.17082 | 468 ft | 138 kts | 351° |
| 2026-05-09 08:53 | 36.98298 | -25.17248 | 940 ft | 151 kts | 352° |
| 2026-05-09 08:53 | 36.99385 | -25.17375 | 1394 ft | 167 kts | 354° |
| 2026-05-09 08:53 | 37.00585 | -25.17502 | 1828 ft | 177 kts | 352° |
| 2026-05-09 08:53 | 37.01866 | -25.17666 | 2097 ft | 194 kts | 353° |
| 2026-05-09 08:54 | 37.03227 | -25.17818 | 2594 ft | 198 kts | 354° |
| 2026-05-09 08:54 | 37.04617 | -25.17956 | 3104 ft | 201 kts | 354° |
| 2026-05-09 08:54 | 37.06001 | -25.18076 | 3694 ft | 200 kts | 354° |
| 2026-05-09 08:54 | 37.07415 | -25.18192 | 4147 ft | 206 kts | 354° |
| 2026-05-09 08:55 | 37.08842 | -25.18303 | 4703 ft | 206 kts | 354° |
| 2026-05-09 08:55 | 37.10287 | -25.18411 | 5237 ft | 208 kts | 354° |
| 2026-05-09 08:55 | 37.11737 | -25.18515 | 5761 ft | 210 kts | 354° |
| 2026-05-09 08:55 | 37.13208 | -25.18618 | 6257 ft | 213 kts | 354° |
| 2026-05-09 08:56 | 37.14693 | -25.18720 | 6737 ft | 217 kts | 354° |
| 2026-05-09 08:56 | 37.16202 | -25.18823 | 7294 ft | 217 kts | 353° |
| 2026-05-09 08:56 | 37.17730 | -25.18925 | 7807 ft | 220 kts | 353° |
| 2026-05-09 08:56 | 37.19260 | -25.19027 | 8344 ft | 222 kts | 353° |
| 2026-05-09 08:57 | 37.20793 | -25.19128 | 8941 ft | 220 kts | 353° |
| 2026-05-09 08:57 | 37.22319 | -25.19229 | 9467 ft | 221 kts | 353° |
| 2026-05-09 08:57 | 37.23882 | -25.19334 | 9826 ft | 230 kts | 352° |
| 2026-05-09 08:57 | 37.25549 | -25.19448 | 9946 ft | 246 kts | 353° |
| 2026-05-09 08:58 | 37.27305 | -25.19568 | 9983 ft | 262 kts | 353° |
| 2026-05-09 08:58 | 37.29189 | -25.19693 | 9984 ft | 272 kts | 353° |
| 2026-05-09 08:58 | 37.31065 | -25.19818 | 9976 ft | 269 kts | 353° |
| 2026-05-09 08:58 | 37.32944 | -25.19941 | 9976 ft | 268 kts | 353° |
| 2026-05-09 08:59 | 37.34800 | -25.20062 | 9980 ft | 267 kts | 353° |
| 2026-05-09 08:59 | 37.36681 | -25.20184 | 9981 ft | 267 kts | 353° |
| 2026-05-09 08:59 | 37.38533 | -25.20306 | 9980 ft | 266 kts | 353° |
| 2026-05-09 08:59 | 37.40390 | -25.20427 | 9980 ft | 266 kts | 353° |
| 2026-05-09 09:00 | 37.42249 | -25.20549 | 9978 ft | 266 kts | 353° |
| 2026-05-09 09:00 | 37.44087 | -25.20669 | 9977 ft | 265 kts | 353° |
| 2026-05-09 09:00 | 37.45941 | -25.20791 | 9973 ft | 265 kts | 353° |
| 2026-05-09 09:00 | 37.47782 | -25.20912 | 9974 ft | 264 kts | 353° |
| 2026-05-09 09:01 | 37.49616 | -25.21034 | 9840 ft | 259 kts | 353° |
| 2026-05-09 09:01 | 37.51394 | -25.21154 | 9573 ft | 256 kts | 353° |
| 2026-05-09 09:01 | 37.53163 | -25.21273 | 9249 ft | 252 kts | 354° |
| 2026-05-09 09:01 | 37.54912 | -25.21391 | 8905 ft | 248 kts | 353° |
| 2026-05-09 09:02 | 37.56638 | -25.21507 | 8559 ft | 245 kts | 354° |
| 2026-05-09 09:02 | 37.58273 | -25.21956 | 8077 ft | 238 kts | 331° |
| 2026-05-09 09:02 | 37.59345 | -25.23438 | 7790 ft | 229 kts | 301° |
| 2026-05-09 09:02 | 37.59992 | -25.25223 | 7731 ft | 214 kts | 298° |
| 2026-05-09 09:03 | 37.60593 | -25.26929 | 7659 ft | 213 kts | 298° |
| 2026-05-09 09:03 | 37.61180 | -25.28697 | 7251 ft | 221 kts | 296° |
| 2026-05-09 09:03 | 37.61758 | -25.30477 | 6787 ft | 219 kts | 296° |
| 2026-05-09 09:03 | 37.62310 | -25.32237 | 6356 ft | 215 kts | 295° |
| 2026-05-09 09:04 | 37.62849 | -25.33968 | 5962 ft | 209 kts | 296° |
| 2026-05-09 09:04 | 37.63373 | -25.35639 | 5629 ft | 200 kts | 296° |
| 2026-05-09 09:04 | 37.63871 | -25.37226 | 5334 ft | 191 kts | 297° |
| 2026-05-09 09:04 | 37.64354 | -25.38750 | 5043 ft | 180 kts | 297° |
| 2026-05-09 09:05 | 37.64807 | -25.40179 | 4780 ft | 170 kts | 297° |
| 2026-05-09 09:05 | 37.65264 | -25.41579 | 4607 ft | 175 kts | 298° |
| 2026-05-09 09:05 | 37.65741 | -25.43022 | 4481 ft | 182 kts | 298° |
| 2026-05-09 09:05 | 37.66230 | -25.44539 | 4292 ft | 191 kts | 298° |
| 2026-05-09 09:06 | 37.66745 | -25.46149 | 4048 ft | 202 kts | 297° |
| 2026-05-09 09:06 | 37.67277 | -25.47819 | 3759 ft | 210 kts | 297° |
| 2026-05-09 09:06 | 37.67825 | -25.49548 | 3455 ft | 215 kts | 297° |
| 2026-05-09 09:06 | 37.68386 | -25.51329 | 3135 ft | 217 kts | 297° |
| 2026-05-09 09:07 | 37.68930 | -25.53076 | 2805 ft | 210 kts | 296° |
| 2026-05-09 09:07 | 37.69448 | -25.54753 | 2516 ft | 198 kts | 297° |
| 2026-05-09 09:07 | 37.69926 | -25.56292 | 2296 ft | 176 kts | 298° |
| 2026-05-09 09:07 | 37.70356 | -25.57657 | 2048 ft | 158 kts | 298° |
| 2026-05-09 09:08 | 37.70741 | -25.58872 | 1804 ft | 142 kts | 299° |
| 2026-05-09 09:08 | 37.71079 | -25.59973 | 1565 ft | 128 kts | 299° |
| 2026-05-09 09:08 | 37.71312 | -25.60671 | 1518 ft | 131 kts | 301° |